createdAt,value
2019-02-06T05:04:05.444Z,96.966553
2019-02-06T05:07:33.347Z,97.070312
2019-02-06T05:11:01.224Z,97.174072
2019-02-06T05:14:29.107Z,97.174072
2019-02-06T05:17:56.983Z,97.174072
2019-02-06T05:21:24.869Z,97.070312
2019-02-06T05:24:52.761Z,96.966553
2019-02-06T05:28:20.631Z,97.070312
2019-02-06T05:31:48.523Z,97.174072
2019-02-06T05:35:16.436Z,97.070312
2019-02-06T05:38:44.313Z,97.119141
2019-02-06T05:42:12.187Z,97.2229
2019-02-06T05:45:40.074Z,97.32666
2019-02-06T05:49:07.950Z,97.2229
2019-02-06T05:52:35.826Z,97.32666
2019-02-06T05:56:03.723Z,97.32666
2019-02-06T05:59:31.594Z,97.32666
2019-02-06T06:02:59.491Z,97.009277
2019-02-06T06:06:27.371Z,97.009277
2019-02-06T06:09:55.245Z,97.119141
2019-02-06T06:13:23.488Z,97.119141
2019-02-06T06:16:52.273Z,96.905518
2019-02-06T06:20:23.025Z,96.905518
2019-02-06T06:23:50.899Z,96.490479
2019-02-06T06:27:18.786Z,96.697998
2019-02-06T06:30:47.670Z,96.697998
2019-02-06T06:34:15.532Z,96.697998
2019-02-06T06:37:43.459Z,96.643066
2019-02-06T06:41:16.270Z,96.429443
2019-02-06T06:44:44.232Z,96.325684
2019-02-06T06:48:12.150Z,96.325684
2019-02-06T06:51:40.027Z,96.533203
2019-02-06T06:55:07.895Z,96.325684
2019-02-06T06:58:35.773Z,96.429443
2019-02-06T07:02:03.665Z,96.429443
2019-02-06T07:05:32.551Z,96.386719
2019-02-06T07:09:00.425Z,96.014404
2019-02-06T07:12:28.314Z,95.910645
2019-02-06T07:15:56.223Z,95.910645
2019-02-06T07:19:26.083Z,96.014404
2019-02-06T07:22:53.963Z,96.118164
2019-02-06T07:26:22.839Z,95.76416
2019-02-06T07:29:50.728Z,95.6604
2019-02-06T07:33:18.701Z,95.245361
2019-02-06T07:36:46.513Z,95.245361
2019-02-06T07:40:14.413Z,95.031738
2019-02-06T07:43:42.321Z,94.927979
2019-02-06T07:47:10.206Z,94.40918
2019-02-06T07:50:39.090Z,94.30542
2019-02-06T07:54:06.967Z,93.847656
2019-02-06T07:57:34.848Z,93.847656
2019-02-06T08:01:02.861Z,93.328857
2019-02-06T08:04:30.695Z,93.011475
2019-02-06T08:07:58.584Z,93.328857
2019-02-06T08:11:26.480Z,92.700195
2019-02-06T08:14:54.355Z,91.766357
2019-02-06T08:18:23.240Z,91.351318
2019-02-06T08:21:51.125Z,91.101074
2019-02-06T08:25:19.014Z,90.997314
2019-02-06T08:28:46.898Z,90.264893
2019-02-06T08:32:14.843Z,90.582275
2019-02-06T08:35:42.677Z,90.332031
2019-02-06T08:39:10.545Z,90.020752
2019-02-06T08:42:38.444Z,89.39209
2019-02-06T08:46:06.332Z,89.49585
2019-02-06T08:49:34.204Z,89.562988
2019-02-06T08:53:02.085Z,89.251709
2019-02-06T08:56:29.978Z,88.519287
2019-02-06T08:59:57.866Z,88.000488
2019-02-06T09:03:25.738Z,88.000488
2019-02-06T09:06:53.625Z,87.341309
2019-02-06T09:10:21.496Z,86.82251
2019-02-06T09:13:50.293Z,86.92627
2019-02-06T09:17:18.184Z,86.71875
2019-02-06T09:20:46.069Z,86.61499
2019-02-06T09:24:15.953Z,86.61499
2019-02-06T09:27:43.839Z,86.157227
2019-02-06T09:31:11.730Z,86.260986
2019-02-06T09:34:39.626Z,85.845947
2019-02-06T09:38:07.518Z,85.742188
2019-02-06T09:41:35.410Z,86.120605
2019-02-06T09:45:03.290Z,85.394287
2019-02-06T09:48:32.171Z,84.667969
2019-02-06T09:52:00.089Z,84.460449
2019-02-06T09:55:27.980Z,85.705566
2019-02-06T09:58:55.854Z,84.460449
2019-02-06T10:02:23.742Z,84.771729
2019-02-06T10:05:51.641Z,84.979248
2019-02-06T10:09:22.736Z,85.351562
2019-02-06T10:12:49.387Z,84.936523
2019-02-06T10:16:19.924Z,84.210205
2019-02-06T10:19:47.168Z,84.692383
2019-02-06T10:23:15.060Z,83.654785
2019-02-06T10:26:42.944Z,84.173584
2019-02-06T10:30:10.811Z,84.069824
2019-02-06T10:33:38.697Z,83.551025
2019-02-06T10:37:06.584Z,84.173584
2019-02-06T10:40:34.482Z,83.966064
2019-02-06T10:44:02.383Z,84.0271
2019-02-06T10:47:30.279Z,84.442139
2019-02-06T10:50:59.158Z,82.995605
2019-02-06T10:54:27.038Z,83.929443
2019-02-06T10:57:54.911Z,83.721924
2019-02-06T11:01:22.799Z,83.1604
2019-02-06T11:04:50.678Z,82.293701
2019-02-06T11:08:18.550Z,81.018066
2019-02-06T11:11:46.428Z,81.225586
2019-02-06T11:15:15.310Z,81.536865
2019-02-06T11:18:44.670Z,80.603027
2019-02-06T11:22:13.057Z,80.706787
2019-02-06T11:25:41.003Z,79.736328
2019-02-06T11:29:08.875Z,79.736328
2019-02-06T11:32:36.769Z,78.668213
2019-02-06T11:36:04.659Z,79.394531
2019-02-06T11:39:32.533Z,78.704834
2019-02-06T11:43:00.417Z,79.327393
2019-02-06T11:46:28.301Z,79.260254
2019-02-06T11:49:56.177Z,80.291748
2019-02-06T11:53:26.383Z,80.499268
2019-02-06T11:56:52.948Z,80.603027
2019-02-06T12:00:20.839Z,79.840088
2019-02-06T12:03:48.704Z,80.462646
2019-02-06T12:07:16.598Z,80.670166
2019-02-06T12:10:44.498Z,79.840088
2019-02-06T12:14:12.366Z,79.632568
2019-02-06T12:17:40.253Z,79.327393
2019-02-06T12:21:08.145Z,79.528809
2019-02-06T12:24:38.003Z,79.632568
2019-02-06T12:28:05.898Z,79.669189
2019-02-06T12:31:33.828Z,79.364014
2019-02-06T12:35:01.701Z,79.156494
2019-02-06T12:38:29.584Z,79.56543
2019-02-06T12:41:57.485Z,79.876709
2019-02-06T12:45:25.450Z,79.943848
2019-02-06T12:48:53.416Z,79.431152
2019-02-06T12:52:21.314Z,79.840088
2019-02-06T12:55:49.268Z,80.670166
2019-02-06T12:59:17.133Z,80.877686
2019-02-06T13:02:45.051Z,80.358887
2019-02-06T13:06:12.938Z,80.914307
2019-02-06T13:09:40.873Z,82.049561
2019-02-06T13:13:08.885Z,82.983398
2019-02-06T13:16:36.813Z,82.672119
2019-02-06T13:20:05.729Z,82.4646
2019-02-06T13:23:33.647Z,81.433105
2019-02-06T13:27:01.551Z,81.225586
2019-02-06T13:30:29.438Z,81.018066
2019-02-06T13:33:57.834Z,82.049561
2019-02-06T13:37:25.728Z,81.738281
2019-02-06T13:40:53.673Z,82.25708
2019-02-06T13:44:21.598Z,82.775879
2019-02-06T13:47:49.536Z,82.983398
2019-02-06T13:51:19.660Z,84.014893
2019-02-06T13:54:47.606Z,83.538818
2019-02-06T13:58:19.936Z,84.368896
2019-02-06T14:01:46.402Z,87.060547
2019-02-06T14:05:14.276Z,89.172363
2019-02-06T14:08:42.163Z,89.581299
2019-02-06T14:12:10.054Z,90.869141
2019-02-06T14:15:39.911Z,91.491699
2019-02-06T14:19:07.807Z,90.765381
2019-02-06T14:22:35.701Z,90.869141
2019-02-06T14:26:03.591Z,89.935303
2019-02-06T14:29:31.464Z,90.246582
2019-02-06T14:32:59.342Z,89.727783
2019-02-06T14:36:27.340Z,89.831543
2019-02-06T14:39:55.209Z,90.350342
2019-02-06T14:43:24.178Z,90.661621
2019-02-06T14:46:52.069Z,90.9729
2019-02-06T14:50:19.938Z,90.869141
2019-02-06T14:53:47.831Z,90.350342
2019-02-06T14:57:15.716Z,91.387939
2019-02-06T15:00:44.597Z,90.9729
2019-02-06T15:04:16.459Z,90.765381
2019-02-06T15:07:44.350Z,91.845703
2019-02-06T15:11:19.485Z,92.675781
2019-02-06T15:14:46.138Z,93.811035
2019-02-06T15:18:13.948Z,94.226074
2019-02-06T15:21:41.837Z,94.476318
2019-02-06T15:25:09.724Z,94.891357
2019-02-06T15:28:37.697Z,95.202637
2019-02-06T15:32:05.472Z,94.995117
2019-02-06T15:35:33.359Z,95.928955
2019-02-06T15:39:01.230Z,96.343994
2019-02-06T15:42:29.112Z,97.070312
2019-02-06T15:45:58.264Z,97.53418
2019-02-06T15:49:25.866Z,97.637939
2019-02-06T15:52:53.753Z,97.949219
2019-02-06T15:56:21.644Z,98.364258
2019-02-06T15:59:49.520Z,98.468018
2019-02-06T16:03:17.498Z,98.779297
2019-02-06T16:06:45.297Z,99.194336
2019-02-06T16:10:13.175Z,99.6521
2019-02-06T16:13:41.063Z,99.859619
2019-02-06T16:17:08.951Z,99.993896
2019-02-06T16:20:36.833Z,99.993896
2019-02-06T16:24:04.718Z,99.993896
2019-02-06T16:27:32.607Z,99.993896
2019-02-06T16:31:00.471Z,99.993896
2019-02-06T16:34:28.365Z,99.993896
2019-02-06T16:37:56.251Z,99.993896
2019-02-06T16:41:24.137Z,99.993896
2019-02-06T16:44:52.004Z,99.993896
2019-02-06T16:48:19.892Z,99.993896
2019-02-06T16:51:47.840Z,99.993896
2019-02-06T16:55:15.734Z,99.993896
2019-02-06T16:58:43.609Z,99.993896
2019-02-06T17:02:11.497Z,99.993896
2019-02-06T17:05:39.369Z,99.993896
2019-02-06T17:09:07.265Z,99.993896
2019-02-06T17:12:35.138Z,99.993896
2019-02-06T17:16:03.033Z,99.993896
2019-02-06T17:19:30.931Z,99.993896
2019-02-06T17:22:58.802Z,99.993896
2019-02-06T17:26:26.693Z,99.993896
2019-02-06T17:29:54.583Z,99.993896
2019-02-06T17:33:22.455Z,99.993896
2019-02-06T17:36:50.354Z,99.993896
2019-02-06T17:40:18.258Z,99.993896
2019-02-06T17:43:46.115Z,99.993896
2019-02-06T17:47:14.011Z,99.993896
2019-02-06T17:50:41.903Z,99.993896
2019-02-06T17:54:09.777Z,99.993896
2019-02-06T17:57:37.672Z,99.993896
2019-02-06T18:01:05.556Z,99.920654
2019-02-06T18:04:33.433Z,99.560547
2019-02-06T18:08:01.326Z,99.249268
2019-02-06T18:11:29.216Z,99.145508
2019-02-06T18:14:57.088Z,99.041748
2019-02-06T18:18:24.972Z,98.937988
2019-02-06T18:21:52.858Z,98.937988
2019-02-06T18:25:20.732Z,98.522949
2019-02-06T18:28:48.620Z,98.419189
2019-02-06T18:32:16.519Z,98.31543
2019-02-06T18:35:44.410Z,98.10791
2019-02-06T18:39:12.284Z,98.21167
2019-02-06T18:42:40.172Z,97.900391
2019-02-06T18:46:08.062Z,97.900391
2019-02-06T18:49:35.942Z,97.692871
2019-02-06T18:53:04.819Z,97.485352
2019-02-06T18:56:33.706Z,97.485352
2019-02-06T19:00:01.591Z,97.485352
2019-02-06T19:03:30.489Z,97.381592
2019-02-06T19:06:58.416Z,97.381592
2019-02-06T19:10:26.268Z,97.174072
2019-02-06T19:13:54.337Z,97.027588
2019-02-06T19:17:24.484Z,97.131348
2019-02-06T19:20:53.335Z,97.338867
2019-02-06T19:24:23.888Z,97.546387
2019-02-06T19:27:52.920Z,97.650146
2019-02-06T19:31:21.866Z,97.857666
2019-02-06T19:34:49.807Z,97.857666
2019-02-06T19:38:17.717Z,98.065186
2019-02-06T19:41:45.722Z,97.961426
2019-02-06T19:45:13.668Z,97.857666
2019-02-06T19:48:41.688Z,97.857666
2019-02-06T19:52:09.653Z,97.961426
2019-02-06T19:55:37.556Z,97.857666
2019-02-06T19:59:05.465Z,97.650146
2019-02-06T20:02:33.409Z,97.650146
2019-02-06T20:06:01.390Z,97.442627
2019-02-06T20:09:31.326Z,97.338867
2019-02-06T20:13:10.126Z,97.650146
2019-02-06T20:16:33.100Z,97.131348
2019-02-06T20:20:00.979Z,97.235107
2019-02-06T20:23:28.869Z,97.027588
2019-02-06T20:26:56.798Z,96.508789
2019-02-06T20:30:24.676Z,96.612549
2019-02-06T20:33:52.591Z,96.612549
2019-02-06T20:37:20.477Z,96.820068
2019-02-06T20:40:48.363Z,97.131348
2019-02-06T20:44:16.251Z,97.131348
2019-02-06T20:47:44.143Z,97.442627
2019-02-06T20:51:12.012Z,97.753906
2019-02-06T20:54:39.965Z,97.961426
2019-02-06T20:58:07.850Z,97.961426
2019-02-06T21:01:35.812Z,98.065186
2019-02-06T21:05:04.689Z,98.168945
2019-02-06T21:08:32.584Z,98.272705
2019-02-06T21:12:00.460Z,98.583984
2019-02-06T21:15:28.348Z,98.687744
2019-02-06T21:18:57.227Z,98.791504
2019-02-06T21:22:25.103Z,98.895264
2019-02-06T21:25:53.025Z,98.999023
2019-02-06T21:29:20.925Z,99.102783
2019-02-06T21:32:48.927Z,99.206543
2019-02-06T21:36:16.800Z,99.310303
2019-02-06T21:39:44.688Z,99.517822
2019-02-06T21:43:13.571Z,99.517822
2019-02-06T21:46:41.443Z,99.517822
2019-02-06T21:50:10.326Z,99.414062
2019-02-06T21:53:38.316Z,99.310303
2019-02-06T21:57:06.085Z,99.206543
2019-02-06T22:00:33.971Z,99.102783
2019-02-06T22:04:01.855Z,99.102783
2019-02-06T22:07:29.726Z,98.999023
2019-02-06T22:10:57.641Z,98.895264
2019-02-06T22:14:25.524Z,99.102783
2019-02-06T22:17:54.404Z,99.102783
2019-02-06T22:21:22.279Z,99.102783
2019-02-06T22:24:50.171Z,99.102783
2019-02-06T22:28:18.068Z,99.053955
2019-02-06T22:31:45.935Z,99.102783
2019-02-06T22:35:14.818Z,99.053955
2019-02-06T22:38:42.708Z,98.846436
2019-02-06T22:42:11.584Z,98.950195
2019-02-06T22:45:39.483Z,99.261475
2019-02-06T22:49:07.367Z,99.719238
2019-02-06T22:52:35.261Z,99.993896
2019-02-06T22:56:03.126Z,99.993896
2019-02-06T22:59:31.020Z,99.993896
